sensor_id;sensor_type;location;lat;lon;timestamp;P1;durP1;ratioP1;P2;durP2;ratioP2
32319;SDS011;19080;51.750;5.888;2023-09-19T00:00:45;15.27;;;3.70;;
32319;SDS011;19080;51.750;5.888;2023-09-19T00:03:14;19.63;;;3.78;;
32319;SDS011;19080;51.750;5.888;2023-09-19T00:05:42;14.57;;;3.25;;
32319;SDS011;19080;51.750;5.888;2023-09-19T00:08:10;10.45;;;2.65;;
32319;SDS011;19080;51.750;5.888;2023-09-19T00:10:40;12.80;;;3.33;;
32319;SDS011;19080;51.750;5.888;2023-09-19T00:13:08;10.60;;;3.10;;
32319;SDS011;19080;51.750;5.888;2023-09-19T00:15:40;9.55;;;3.05;;
32319;SDS011;19080;51.750;5.888;2023-09-19T00:18:09;12.07;;;3.58;;
32319;SDS011;19080;51.750;5.888;2023-09-19T00:20:36;14.48;;;3.55;;
32319;SDS011;19080;51.750;5.888;2023-09-19T00:23:05;21.08;;;4.22;;
32319;SDS011;19080;51.750;5.888;2023-09-19T00:25:35;12.48;;;3.95;;
32319;SDS011;19080;51.750;5.888;2023-09-19T00:28:04;16.80;;;4.30;;
32319;SDS011;19080;51.750;5.888;2023-09-19T00:30:33;18.77;;;4.38;;
32319;SDS011;19080;51.750;5.888;2023-09-19T00:33:00;13.68;;;3.53;;
32319;SDS011;19080;51.750;5.888;2023-09-19T00:35:28;14.68;;;3.42;;
32319;SDS011;19080;51.750;5.888;2023-09-19T00:37:55;12.63;;;3.50;;
32319;SDS011;19080;51.750;5.888;2023-09-19T00:40:22;8.73;;;3.28;;
32319;SDS011;19080;51.750;5.888;2023-09-19T00:42:48;15.30;;;4.13;;
32319;SDS011;19080;51.750;5.888;2023-09-19T00:45:17;14.15;;;3.10;;
32319;SDS011;19080;51.750;5.888;2023-09-19T00:47:45;11.93;;;2.95;;
32319;SDS011;19080;51.750;5.888;2023-09-19T00:50:17;13.70;;;3.10;;
32319;SDS011;19080;51.750;5.888;2023-09-19T00:52:49;14.55;;;3.22;;
32319;SDS011;19080;51.750;5.888;2023-09-19T00:55:19;16.63;;;3.25;;
32319;SDS011;19080;51.750;5.888;2023-09-19T00:57:46;16.08;;;3.58;;
32319;SDS011;19080;51.750;5.888;2023-09-19T01:00:16;10.95;;;2.92;;
32319;SDS011;19080;51.750;5.888;2023-09-19T01:02:47;10.00;;;2.83;;
32319;SDS011;19080;51.750;5.888;2023-09-19T01:05:15;13.88;;;3.40;;
32319;SDS011;19080;51.750;5.888;2023-09-19T01:07:42;14.25;;;3.13;;
32319;SDS011;19080;51.750;5.888;2023-09-19T01:10:15;14.18;;;3.75;;
32319;SDS011;19080;51.750;5.888;2023-09-19T01:32:20;9.82;;;3.40;;
32319;SDS011;19080;51.750;5.888;2023-09-19T01:37:32;16.00;;;3.05;;
32319;SDS011;19080;51.750;5.888;2023-09-19T01:40:03;23.42;;;3.63;;
32319;SDS011;19080;51.750;5.888;2023-09-19T01:42:49;19.63;;;3.35;;
32319;SDS011;19080;51.750;5.888;2023-09-19T01:51:21;11.57;;;2.97;;
32319;SDS011;19080;51.750;5.888;2023-09-19T01:53:59;16.20;;;3.83;;
32319;SDS011;19080;51.750;5.888;2023-09-19T01:56:36;10.32;;;3.17;;
32319;SDS011;19080;51.750;5.888;2023-09-19T01:59:16;10.63;;;3.00;;
32319;SDS011;19080;51.750;5.888;2023-09-19T02:01:47;18.73;;;3.67;;
32319;SDS011;19080;51.750;5.888;2023-09-19T02:04:15;13.20;;;3.38;;
32319;SDS011;19080;51.750;5.888;2023-09-19T02:06:42;13.30;;;2.92;;
32319;SDS011;19080;51.750;5.888;2023-09-19T02:09:09;10.25;;;2.50;;
32319;SDS011;19080;51.750;5.888;2023-09-19T02:11:36;23.92;;;4.32;;
32319;SDS011;19080;51.750;5.888;2023-09-19T02:14:03;15.43;;;3.45;;
32319;SDS011;19080;51.750;5.888;2023-09-19T02:16:31;12.75;;;3.17;;
32319;SDS011;19080;51.750;5.888;2023-09-19T02:18:57;16.02;;;2.92;;
32319;SDS011;19080;51.750;5.888;2023-09-19T02:21:26;13.85;;;3.00;;
32319;SDS011;19080;51.750;5.888;2023-09-19T02:23:56;14.40;;;3.10;;
32319;SDS011;19080;51.750;5.888;2023-09-19T02:26:22;19.00;;;3.10;;
32319;SDS011;19080;51.750;5.888;2023-09-19T02:28:50;13.95;;;3.67;;
32319;SDS011;19080;51.750;5.888;2023-09-19T02:31:16;15.93;;;3.25;;
32319;SDS011;19080;51.750;5.888;2023-09-19T02:33:43;14.45;;;3.42;;
32319;SDS011;19080;51.750;5.888;2023-09-19T02:36:10;9.18;;;3.08;;
32319;SDS011;19080;51.750;5.888;2023-09-19T02:38:37;20.75;;;3.63;;
32319;SDS011;19080;51.750;5.888;2023-09-19T02:41:03;19.85;;;3.38;;
32319;SDS011;19080;51.750;5.888;2023-09-19T02:43:30;13.68;;;2.75;;
32319;SDS011;19080;51.750;5.888;2023-09-19T02:45:57;12.02;;;3.13;;
32319;SDS011;19080;51.750;5.888;2023-09-19T02:48:23;11.80;;;3.10;;
32319;SDS011;19080;51.750;5.888;2023-09-19T02:50:52;11.07;;;2.75;;
32319;SDS011;19080;51.750;5.888;2023-09-19T02:53:20;17.90;;;3.35;;
32319;SDS011;19080;51.750;5.888;2023-09-19T02:55:46;12.65;;;3.42;;
32319;SDS011;19080;51.750;5.888;2023-09-19T02:58:13;10.68;;;3.05;;
32319;SDS011;19080;51.750;5.888;2023-09-19T03:00:41;15.00;;;2.85;;
32319;SDS011;19080;51.750;5.888;2023-09-19T03:03:08;19.35;;;3.65;;
32319;SDS011;19080;51.750;5.888;2023-09-19T03:05:36;12.32;;;3.13;;
32319;SDS011;19080;51.750;5.888;2023-09-19T03:08:04;15.45;;;3.30;;
32319;SDS011;19080;51.750;5.888;2023-09-19T03:10:32;9.30;;;2.75;;
32319;SDS011;19080;51.750;5.888;2023-09-19T03:13:00;13.48;;;3.03;;
32319;SDS011;19080;51.750;5.888;2023-09-19T03:15:26;12.27;;;2.90;;
32319;SDS011;19080;51.750;5.888;2023-09-19T03:17:53;11.93;;;2.95;;
32319;SDS011;19080;51.750;5.888;2023-09-19T03:20:24;18.40;;;2.95;;
32319;SDS011;19080;51.750;5.888;2023-09-19T03:22:53;11.60;;;2.60;;
32319;SDS011;19080;51.750;5.888;2023-09-19T03:25:21;11.05;;;2.53;;
32319;SDS011;19080;51.750;5.888;2023-09-19T03:27:50;11.90;;;2.83;;
32319;SDS011;19080;51.750;5.888;2023-09-19T03:30:17;9.05;;;2.60;;
32319;SDS011;19080;51.750;5.888;2023-09-19T03:32:48;11.13;;;3.25;;
32319;SDS011;19080;51.750;5.888;2023-09-19T03:35:17;10.25;;;3.33;;
32319;SDS011;19080;51.750;5.888;2023-09-19T03:37:45;10.57;;;2.75;;
32319;SDS011;19080;51.750;5.888;2023-09-19T03:40:13;7.13;;;2.50;;
32319;SDS011;19080;51.750;5.888;2023-09-19T03:42:41;10.52;;;2.55;;
32319;SDS011;19080;51.750;5.888;2023-09-19T03:45:11;12.27;;;2.63;;
32319;SDS011;19080;51.750;5.888;2023-09-19T03:48:10;7.65;;;1.90;;
32319;SDS011;19080;51.750;5.888;2023-09-19T03:50:37;16.30;;;2.72;;
32319;SDS011;19080;51.750;5.888;2023-09-19T03:53:04;12.82;;;3.30;;
32319;SDS011;19080;51.750;5.888;2023-09-19T03:55:31;11.32;;;2.75;;
32319;SDS011;19080;51.750;5.888;2023-09-19T03:57:58;5.28;;;2.00;;
32319;SDS011;19080;51.750;5.888;2023-09-19T04:00:25;10.15;;;2.50;;
32319;SDS011;19080;51.750;5.888;2023-09-19T04:02:53;11.93;;;2.60;;
32319;SDS011;19080;51.750;5.888;2023-09-19T04:05:20;13.68;;;2.85;;
32319;SDS011;19080;51.750;5.888;2023-09-19T04:07:46;12.25;;;2.63;;
32319;SDS011;19080;51.750;5.888;2023-09-19T04:10:13;11.65;;;3.00;;
32319;SDS011;19080;51.750;5.888;2023-09-19T04:12:41;11.25;;;2.90;;
32319;SDS011;19080;51.750;5.888;2023-09-19T04:15:18;10.18;;;2.58;;
32319;SDS011;19080;51.750;5.888;2023-09-19T04:17:45;12.77;;;2.47;;
32319;SDS011;19080;51.750;5.888;2023-09-19T04:20:13;10.20;;;2.08;;
32319;SDS011;19080;51.750;5.888;2023-09-19T04:22:40;7.20;;;1.88;;
32319;SDS011;19080;51.750;5.888;2023-09-19T04:25:08;11.25;;;3.03;;
32319;SDS011;19080;51.750;5.888;2023-09-19T04:27:35;13.07;;;2.50;;
32319;SDS011;19080;51.750;5.888;2023-09-19T04:30:03;13.88;;;3.13;;
32319;SDS011;19080;51.750;5.888;2023-09-19T04:32:31;8.93;;;2.65;;
32319;SDS011;19080;51.750;5.888;2023-09-19T04:34:59;8.18;;;2.42;;
32319;SDS011;19080;51.750;5.888;2023-09-19T04:37:29;7.38;;;2.17;;
32319;SDS011;19080;51.750;5.888;2023-09-19T04:39:56;11.68;;;2.42;;
32319;SDS011;19080;51.750;5.888;2023-09-19T04:42:23;11.45;;;2.85;;
32319;SDS011;19080;51.750;5.888;2023-09-19T04:44:51;8.50;;;2.55;;
32319;SDS011;19080;51.750;5.888;2023-09-19T04:47:19;7.13;;;2.17;;
32319;SDS011;19080;51.750;5.888;2023-09-19T04:49:47;16.55;;;3.92;;
32319;SDS011;19080;51.750;5.888;2023-09-19T04:52:15;8.32;;;2.22;;
32319;SDS011;19080;51.750;5.888;2023-09-19T04:54:42;13.02;;;3.22;;
32319;SDS011;19080;51.750;5.888;2023-09-19T04:57:10;10.05;;;2.50;;
32319;SDS011;19080;51.750;5.888;2023-09-19T04:59:36;9.38;;;3.00;;
32319;SDS011;19080;51.750;5.888;2023-09-19T05:02:04;10.25;;;2.47;;
32319;SDS011;19080;51.750;5.888;2023-09-19T05:04:31;10.10;;;3.33;;
32319;SDS011;19080;51.750;5.888;2023-09-19T05:06:58;10.57;;;2.55;;
32319;SDS011;19080;51.750;5.888;2023-09-19T05:09:27;11.55;;;3.05;;
32319;SDS011;19080;51.750;5.888;2023-09-19T05:11:54;11.75;;;2.60;;
32319;SDS011;19080;51.750;5.888;2023-09-19T05:14:20;11.30;;;3.08;;
32319;SDS011;19080;51.750;5.888;2023-09-19T05:16:47;10.15;;;2.35;;
32319;SDS011;19080;51.750;5.888;2023-09-19T05:19:14;8.90;;;2.97;;
32319;SDS011;19080;51.750;5.888;2023-09-19T05:21:40;14.38;;;2.95;;
32319;SDS011;19080;51.750;5.888;2023-09-19T05:24:07;14.13;;;3.63;;
32319;SDS011;19080;51.750;5.888;2023-09-19T05:26:36;12.40;;;3.00;;
32319;SDS011;19080;51.750;5.888;2023-09-19T05:29:03;12.02;;;3.30;;
32319;SDS011;19080;51.750;5.888;2023-09-19T05:31:31;9.73;;;3.03;;
32319;SDS011;19080;51.750;5.888;2023-09-19T05:33:58;9.38;;;2.92;;
32319;SDS011;19080;51.750;5.888;2023-09-19T05:36:27;9.32;;;2.95;;
32319;SDS011;19080;51.750;5.888;2023-09-19T05:38:56;8.95;;;2.88;;
32319;SDS011;19080;51.750;5.888;2023-09-19T05:41:23;10.25;;;2.65;;
32319;SDS011;19080;51.750;5.888;2023-09-19T05:43:50;13.55;;;3.10;;
32319;SDS011;19080;51.750;5.888;2023-09-19T05:46:17;8.23;;;2.85;;
32319;SDS011;19080;51.750;5.888;2023-09-19T05:48:44;9.50;;;3.00;;
32319;SDS011;19080;51.750;5.888;2023-09-19T05:51:10;13.07;;;3.15;;
32319;SDS011;19080;51.750;5.888;2023-09-19T05:53:37;16.92;;;3.13;;
32319;SDS011;19080;51.750;5.888;2023-09-19T05:56:04;13.45;;;3.33;;
32319;SDS011;19080;51.750;5.888;2023-09-19T05:58:31;10.27;;;3.17;;
32319;SDS011;19080;51.750;5.888;2023-09-19T06:00:58;14.43;;;2.97;;
32319;SDS011;19080;51.750;5.888;2023-09-19T06:03:25;12.10;;;3.22;;
32319;SDS011;19080;51.750;5.888;2023-09-19T06:05:52;14.65;;;2.80;;
32319;SDS011;19080;51.750;5.888;2023-09-19T06:08:23;7.53;;;2.58;;
32319;SDS011;19080;51.750;5.888;2023-09-19T06:10:50;15.18;;;2.90;;
32319;SDS011;19080;51.750;5.888;2023-09-19T06:13:18;12.80;;;3.03;;
32319;SDS011;19080;51.750;5.888;2023-09-19T06:15:46;17.45;;;3.25;;
32319;SDS011;19080;51.750;5.888;2023-09-19T06:18:17;13.77;;;3.28;;
32319;SDS011;19080;51.750;5.888;2023-09-19T06:20:47;11.02;;;2.60;;
32319;SDS011;19080;51.750;5.888;2023-09-19T06:23:14;9.80;;;2.40;;
32319;SDS011;19080;51.750;5.888;2023-09-19T06:25:41;11.10;;;3.08;;
32319;SDS011;19080;51.750;5.888;2023-09-19T06:28:09;11.75;;;2.85;;
32319;SDS011;19080;51.750;5.888;2023-09-19T06:30:38;10.30;;;3.13;;
32319;SDS011;19080;51.750;5.888;2023-09-19T06:33:09;11.80;;;2.92;;
32319;SDS011;19080;51.750;5.888;2023-09-19T06:35:38;11.23;;;2.95;;
32319;SDS011;19080;51.750;5.888;2023-09-19T06:38:05;14.27;;;2.78;;
32319;SDS011;19080;51.750;5.888;2023-09-19T06:40:33;11.93;;;2.50;;
32319;SDS011;19080;51.750;5.888;2023-09-19T06:43:01;15.32;;;3.20;;
32319;SDS011;19080;51.750;5.888;2023-09-19T06:45:31;7.93;;;2.88;;
32319;SDS011;19080;51.750;5.888;2023-09-19T06:47:59;8.35;;;2.72;;
32319;SDS011;19080;51.750;5.888;2023-09-19T06:50:26;8.57;;;2.75;;
32319;SDS011;19080;51.750;5.888;2023-09-19T06:52:54;16.50;;;3.40;;
32319;SDS011;19080;51.750;5.888;2023-09-19T06:55:24;15.75;;;3.15;;
32319;SDS011;19080;51.750;5.888;2023-09-19T06:57:54;11.63;;;2.97;;
32319;SDS011;19080;51.750;5.888;2023-09-19T07:00:21;10.43;;;2.70;;
32319;SDS011;19080;51.750;5.888;2023-09-19T07:03:02;14.85;;;2.88;;
32319;SDS011;19080;51.750;5.888;2023-09-19T07:05:35;11.57;;;2.50;;
32319;SDS011;19080;51.750;5.888;2023-09-19T07:08:06;12.45;;;2.88;;
32319;SDS011;19080;51.750;5.888;2023-09-19T07:10:34;11.68;;;2.58;;
32319;SDS011;19080;51.750;5.888;2023-09-19T07:13:01;11.82;;;3.22;;
32319;SDS011;19080;51.750;5.888;2023-09-19T07:15:31;15.00;;;2.88;;
32319;SDS011;19080;51.750;5.888;2023-09-19T07:18:02;10.95;;;3.03;;
32319;SDS011;19080;51.750;5.888;2023-09-19T07:20:29;11.13;;;2.63;;
32319;SDS011;19080;51.750;5.888;2023-09-19T07:22:59;14.10;;;3.78;;
32319;SDS011;19080;51.750;5.888;2023-09-19T07:25:29;11.77;;;3.25;;
32319;SDS011;19080;51.750;5.888;2023-09-19T07:27:57;11.52;;;3.00;;
32319;SDS011;19080;51.750;5.888;2023-09-19T07:30:27;12.68;;;2.97;;
32319;SDS011;19080;51.750;5.888;2023-09-19T07:32:54;13.88;;;3.25;;
32319;SDS011;19080;51.750;5.888;2023-09-19T07:35:21;12.65;;;2.60;;
32319;SDS011;19080;51.750;5.888;2023-09-19T07:37:48;14.25;;;3.17;;
32319;SDS011;19080;51.750;5.888;2023-09-19T07:40:18;8.82;;;2.45;;
32319;SDS011;19080;51.750;5.888;2023-09-19T07:42:45;13.02;;;3.17;;
32319;SDS011;19080;51.750;5.888;2023-09-19T07:45:13;18.15;;;3.33;;
32319;SDS011;19080;51.750;5.888;2023-09-19T07:47:43;13.05;;;3.80;;
32319;SDS011;19080;51.750;5.888;2023-09-19T07:50:12;13.70;;;3.47;;
32319;SDS011;19080;51.750;5.888;2023-09-19T07:52:40;13.18;;;3.45;;
32319;SDS011;19080;51.750;5.888;2023-09-19T07:55:06;11.90;;;3.22;;
32319;SDS011;19080;51.750;5.888;2023-09-19T07:57:37;13.45;;;3.10;;
32319;SDS011;19080;51.750;5.888;2023-09-19T08:00:04;12.60;;;3.00;;
32319;SDS011;19080;51.750;5.888;2023-09-19T08:02:36;11.48;;;2.95;;
32319;SDS011;19080;51.750;5.888;2023-09-19T08:05:05;8.45;;;2.40;;
32319;SDS011;19080;51.750;5.888;2023-09-19T08:07:33;18.33;;;3.33;;
32319;SDS011;19080;51.750;5.888;2023-09-19T08:10:00;16.70;;;3.53;;
32319;SDS011;19080;51.750;5.888;2023-09-19T08:12:27;8.50;;;2.63;;
32319;SDS011;19080;51.750;5.888;2023-09-19T08:14:54;15.45;;;3.50;;
32319;SDS011;19080;51.750;5.888;2023-09-19T08:17:21;13.32;;;3.22;;
32319;SDS011;19080;51.750;5.888;2023-09-19T08:19:49;17.45;;;3.47;;
32319;SDS011;19080;51.750;5.888;2023-09-19T08:22:19;12.50;;;2.97;;
32319;SDS011;19080;51.750;5.888;2023-09-19T08:24:46;17.17;;;3.40;;
32319;SDS011;19080;51.750;5.888;2023-09-19T08:27:14;9.98;;;2.72;;
32319;SDS011;19080;51.750;5.888;2023-09-19T08:29:41;14.05;;;3.20;;
32319;SDS011;19080;51.750;5.888;2023-09-19T08:32:08;14.55;;;3.33;;
32319;SDS011;19080;51.750;5.888;2023-09-19T08:34:35;12.25;;;3.35;;
32319;SDS011;19080;51.750;5.888;2023-09-19T08:37:05;15.30;;;2.90;;
32319;SDS011;19080;51.750;5.888;2023-09-19T08:39:32;14.35;;;3.60;;
32319;SDS011;19080;51.750;5.888;2023-09-19T08:42:00;14.25;;;3.22;;
32319;SDS011;19080;51.750;5.888;2023-09-19T08:44:28;10.52;;;2.95;;
32319;SDS011;19080;51.750;5.888;2023-09-19T08:47:00;12.68;;;3.13;;
32319;SDS011;19080;51.750;5.888;2023-09-19T08:49:41;12.57;;;3.40;;
32319;SDS011;19080;51.750;5.888;2023-09-19T08:52:12;11.00;;;2.50;;
32319;SDS011;19080;51.750;5.888;2023-09-19T08:54:47;11.20;;;3.47;;
32319;SDS011;19080;51.750;5.888;2023-09-19T08:57:18;7.60;;;2.97;;
32319;SDS011;19080;51.750;5.888;2023-09-19T08:59:48;14.40;;;2.97;;
32319;SDS011;19080;51.750;5.888;2023-09-19T09:02:16;13.07;;;3.15;;
32319;SDS011;19080;51.750;5.888;2023-09-19T09:04:45;16.40;;;3.30;;
32319;SDS011;19080;51.750;5.888;2023-09-19T09:07:14;11.32;;;2.58;;
32319;SDS011;19080;51.750;5.888;2023-09-19T09:09:41;16.80;;;2.65;;
32319;SDS011;19080;51.750;5.888;2023-09-19T09:12:10;8.63;;;2.80;;
32319;SDS011;19080;51.750;5.888;2023-09-19T09:14:45;12.20;;;3.05;;
32319;SDS011;19080;51.750;5.888;2023-09-19T09:17:16;12.48;;;3.22;;
32319;SDS011;19080;51.750;5.888;2023-09-19T09:19:47;11.75;;;3.05;;
32319;SDS011;19080;51.750;5.888;2023-09-19T09:22:14;10.02;;;2.95;;
32319;SDS011;19080;51.750;5.888;2023-09-19T09:24:52;9.70;;;2.65;;
32319;SDS011;19080;51.750;5.888;2023-09-19T09:27:27;9.27;;;2.83;;
32319;SDS011;19080;51.750;5.888;2023-09-19T09:29:54;11.23;;;3.30;;
32319;SDS011;19080;51.750;5.888;2023-09-19T09:32:25;12.82;;;3.53;;
32319;SDS011;19080;51.750;5.888;2023-09-19T09:34:58;11.23;;;3.13;;
32319;SDS011;19080;51.750;5.888;2023-09-19T09:37:27;7.95;;;2.58;;
32319;SDS011;19080;51.750;5.888;2023-09-19T09:39:57;10.38;;;2.63;;
32319;SDS011;19080;51.750;5.888;2023-09-19T09:42:40;5.68;;;2.20;;
32319;SDS011;19080;51.750;5.888;2023-09-19T09:45:12;6.93;;;2.20;;
32319;SDS011;19080;51.750;5.888;2023-09-19T09:47:54;14.02;;;2.85;;
32319;SDS011;19080;51.750;5.888;2023-09-19T09:50:28;11.38;;;3.33;;
32319;SDS011;19080;51.750;5.888;2023-09-19T09:53:17;9.93;;;2.80;;
32319;SDS011;19080;51.750;5.888;2023-09-19T09:56:02;10.07;;;2.67;;
32319;SDS011;19080;51.750;5.888;2023-09-19T09:58:34;11.27;;;2.97;;
32319;SDS011;19080;51.750;5.888;2023-09-19T10:01:01;14.20;;;3.55;;
32319;SDS011;19080;51.750;5.888;2023-09-19T10:03:38;14.07;;;3.38;;
32319;SDS011;19080;51.750;5.888;2023-09-19T10:06:07;15.88;;;3.03;;
32319;SDS011;19080;51.750;5.888;2023-09-19T10:09:02;10.77;;;2.92;;
32319;SDS011;19080;51.750;5.888;2023-09-19T10:11:48;11.20;;;3.00;;
32319;SDS011;19080;51.750;5.888;2023-09-19T10:14:25;14.35;;;2.95;;
32319;SDS011;19080;51.750;5.888;2023-09-19T10:16:59;9.88;;;2.47;;
32319;SDS011;19080;51.750;5.888;2023-09-19T10:19:38;11.07;;;3.13;;
32319;SDS011;19080;51.750;5.888;2023-09-19T10:22:14;8.15;;;2.75;;
32319;SDS011;19080;51.750;5.888;2023-09-19T10:24:47;10.73;;;2.83;;
32319;SDS011;19080;51.750;5.888;2023-09-19T10:27:29;9.65;;;2.50;;
32319;SDS011;19080;51.750;5.888;2023-09-19T10:30:05;9.25;;;2.75;;
32319;SDS011;19080;51.750;5.888;2023-09-19T10:32:35;12.68;;;3.47;;
32319;SDS011;19080;51.750;5.888;2023-09-19T10:35:07;8.60;;;2.60;;
32319;SDS011;19080;51.750;5.888;2023-09-19T10:37:35;14.00;;;2.83;;
32319;SDS011;19080;51.750;5.888;2023-09-19T10:40:05;12.65;;;2.90;;
32319;SDS011;19080;51.750;5.888;2023-09-19T10:42:35;9.13;;;2.88;;
32319;SDS011;19080;51.750;5.888;2023-09-19T10:45:05;7.38;;;2.67;;
32319;SDS011;19080;51.750;5.888;2023-09-19T10:47:39;9.60;;;2.75;;
32319;SDS011;19080;51.750;5.888;2023-09-19T10:50:06;13.70;;;3.67;;
32319;SDS011;19080;51.750;5.888;2023-09-19T10:52:40;10.23;;;2.72;;
32319;SDS011;19080;51.750;5.888;2023-09-19T10:55:10;12.68;;;3.03;;
32319;SDS011;19080;51.750;5.888;2023-09-19T10:57:45;6.13;;;2.20;;
32319;SDS011;19080;51.750;5.888;2023-09-19T11:00:13;11.80;;;2.53;;
32319;SDS011;19080;51.750;5.888;2023-09-19T11:05:39;16.05;;;3.10;;
32319;SDS011;19080;51.750;5.888;2023-09-19T11:08:07;8.95;;;2.78;;
32319;SDS011;19080;51.750;5.888;2023-09-19T11:10:47;8.55;;;2.30;;
32319;SDS011;19080;51.750;5.888;2023-09-19T11:13:27;10.32;;;2.28;;
32319;SDS011;19080;51.750;5.888;2023-09-19T11:26:48;6.82;;;2.30;;
32319;SDS011;19080;51.750;5.888;2023-09-19T11:29:28;11.07;;;2.47;;
32319;SDS011;19080;51.750;5.888;2023-09-19T11:31:56;9.93;;;2.50;;
32319;SDS011;19080;51.750;5.888;2023-09-19T11:37:02;6.75;;;2.10;;
32319;SDS011;19080;51.750;5.888;2023-09-19T11:39:31;7.93;;;2.35;;
32319;SDS011;19080;51.750;5.888;2023-09-19T11:41:58;6.93;;;2.03;;
32319;SDS011;19080;51.750;5.888;2023-09-19T11:46:56;6.07;;;1.95;;
32319;SDS011;19080;51.750;5.888;2023-09-19T11:49:26;11.30;;;2.38;;
32319;SDS011;19080;51.750;5.888;2023-09-19T11:51:58;8.93;;;2.72;;
32319;SDS011;19080;51.750;5.888;2023-09-19T11:54:32;5.93;;;1.90;;
32319;SDS011;19080;51.750;5.888;2023-09-19T11:57:00;6.72;;;2.10;;
32319;SDS011;19080;51.750;5.888;2023-09-19T11:59:27;7.93;;;2.65;;
32319;SDS011;19080;51.750;5.888;2023-09-19T12:02:05;9.38;;;2.38;;
32319;SDS011;19080;51.750;5.888;2023-09-19T12:04:35;5.60;;;1.85;;
32319;SDS011;19080;51.750;5.888;2023-09-19T12:07:06;6.13;;;1.80;;
32319;SDS011;19080;51.750;5.888;2023-09-19T12:09:40;5.32;;;1.50;;
32319;SDS011;19080;51.750;5.888;2023-09-19T12:12:28;12.13;;;2.30;;
32319;SDS011;19080;51.750;5.888;2023-09-19T12:14:56;7.68;;;1.95;;
32319;SDS011;19080;51.750;5.888;2023-09-19T12:17:38;4.15;;;1.63;;
32319;SDS011;19080;51.750;5.888;2023-09-19T12:20:08;5.82;;;1.73;;
32319;SDS011;19080;51.750;5.888;2023-09-19T12:22:43;6.63;;;1.70;;
32319;SDS011;19080;51.750;5.888;2023-09-19T12:25:12;4.45;;;1.63;;
32319;SDS011;19080;51.750;5.888;2023-09-19T12:27:46;4.50;;;1.48;;
32319;SDS011;19080;51.750;5.888;2023-09-19T12:30:14;5.70;;;1.60;;
32319;SDS011;19080;51.750;5.888;2023-09-19T12:32:47;4.97;;;1.50;;
32319;SDS011;19080;51.750;5.888;2023-09-19T12:35:31;7.78;;;1.95;;
32319;SDS011;19080;51.750;5.888;2023-09-19T12:38:02;5.07;;;1.50;;
32319;SDS011;19080;51.750;5.888;2023-09-19T12:40:30;4.60;;;1.70;;
32319;SDS011;19080;51.750;5.888;2023-09-19T12:43:00;2.65;;;1.25;;
32319;SDS011;19080;51.750;5.888;2023-09-19T12:45:31;3.13;;;1.27;;
32319;SDS011;19080;51.750;5.888;2023-09-19T12:51:02;4.60;;;1.60;;
32319;SDS011;19080;51.750;5.888;2023-09-19T12:53:42;6.15;;;1.67;;
32319;SDS011;19080;51.750;5.888;2023-09-19T12:56:12;4.65;;;1.52;;
32319;SDS011;19080;51.750;5.888;2023-09-19T12:58:51;4.85;;;1.40;;
32319;SDS011;19080;51.750;5.888;2023-09-19T13:01:29;6.75;;;1.17;;
32319;SDS011;19080;51.750;5.888;2023-09-19T13:04:12;4.10;;;1.30;;
32319;SDS011;19080;51.750;5.888;2023-09-19T13:06:48;6.25;;;1.40;;
32319;SDS011;19080;51.750;5.888;2023-09-19T13:09:16;4.18;;;1.08;;
32319;SDS011;19080;51.750;5.888;2023-09-19T13:11:45;4.82;;;1.30;;
32319;SDS011;19080;51.750;5.888;2023-09-19T13:14:21;3.95;;;1.25;;
32319;SDS011;19080;51.750;5.888;2023-09-19T13:19:43;4.20;;;1.30;;
32319;SDS011;19080;51.750;5.888;2023-09-19T13:25:07;6.00;;;1.30;;
32319;SDS011;19080;51.750;5.888;2023-09-19T13:27:49;4.53;;;1.10;;
32319;SDS011;19080;51.750;5.888;2023-09-19T13:30:18;5.30;;;0.80;;
32319;SDS011;19080;51.750;5.888;2023-09-19T13:32:46;9.10;;;1.38;;
32319;SDS011;19080;51.750;5.888;2023-09-19T13:35:14;4.20;;;0.85;;
32319;SDS011;19080;51.750;5.888;2023-09-19T13:37:42;4.10;;;1.08;;
32319;SDS011;19080;51.750;5.888;2023-09-19T13:40:10;4.68;;;0.98;;
32319;SDS011;19080;51.750;5.888;2023-09-19T13:42:38;7.80;;;1.25;;
32319;SDS011;19080;51.750;5.888;2023-09-19T13:45:06;4.70;;;1.30;;
32319;SDS011;19080;51.750;5.888;2023-09-19T13:47:39;3.25;;;1.27;;
32319;SDS011;19080;51.750;5.888;2023-09-19T13:50:07;3.80;;;1.23;;
32319;SDS011;19080;51.750;5.888;2023-09-19T13:52:34;3.97;;;0.98;;
32319;SDS011;19080;51.750;5.888;2023-09-19T13:55:01;7.45;;;0.90;;
32319;SDS011;19080;51.750;5.888;2023-09-19T13:57:28;2.92;;;0.95;;
32319;SDS011;19080;51.750;5.888;2023-09-19T13:59:56;4.32;;;1.20;;
32319;SDS011;19080;51.750;5.888;2023-09-19T14:02:22;3.88;;;0.90;;
32319;SDS011;19080;51.750;5.888;2023-09-19T14:04:50;4.40;;;1.00;;
32319;SDS011;19080;51.750;5.888;2023-09-19T14:07:18;2.70;;;0.80;;
32319;SDS011;19080;51.750;5.888;2023-09-19T14:09:47;4.35;;;1.02;;
32319;SDS011;19080;51.750;5.888;2023-09-19T14:12:15;4.40;;;1.30;;
32319;SDS011;19080;51.750;5.888;2023-09-19T14:14:42;7.05;;;1.35;;
32319;SDS011;19080;51.750;5.888;2023-09-19T14:17:09;2.65;;;1.10;;
32319;SDS011;19080;51.750;5.888;2023-09-19T14:19:36;4.97;;;1.02;;
32319;SDS011;19080;51.750;5.888;2023-09-19T14:22:04;2.85;;;0.88;;
32319;SDS011;19080;51.750;5.888;2023-09-19T14:24:34;4.05;;;1.50;;
32319;SDS011;19080;51.750;5.888;2023-09-19T14:27:02;3.00;;;1.10;;
32319;SDS011;19080;51.750;5.888;2023-09-19T14:29:30;7.82;;;1.15;;
32319;SDS011;19080;51.750;5.888;2023-09-19T14:31:58;8.18;;;2.05;;
32319;SDS011;19080;51.750;5.888;2023-09-19T14:34:25;5.10;;;1.00;;
32319;SDS011;19080;51.750;5.888;2023-09-19T14:36:52;2.85;;;0.93;;
32319;SDS011;19080;51.750;5.888;2023-09-19T14:39:20;5.10;;;1.20;;
32319;SDS011;19080;51.750;5.888;2023-09-19T14:41:47;5.57;;;1.42;;
32319;SDS011;19080;51.750;5.888;2023-09-19T14:44:14;4.25;;;1.48;;
32319;SDS011;19080;51.750;5.888;2023-09-19T14:46:42;4.35;;;1.17;;
32319;SDS011;19080;51.750;5.888;2023-09-19T14:49:12;4.28;;;1.40;;
32319;SDS011;19080;51.750;5.888;2023-09-19T14:51:39;1.85;;;0.90;;
32319;SDS011;19080;51.750;5.888;2023-09-19T14:54:10;8.23;;;1.55;;
32319;SDS011;19080;51.750;5.888;2023-09-19T14:56:38;5.03;;;1.35;;
32319;SDS011;19080;51.750;5.888;2023-09-19T14:59:09;4.13;;;1.20;;
32319;SDS011;19080;51.750;5.888;2023-09-19T15:01:37;5.75;;;1.38;;
32319;SDS011;19080;51.750;5.888;2023-09-19T15:04:05;3.33;;;0.90;;
32319;SDS011;19080;51.750;5.888;2023-09-19T15:06:32;4.93;;;1.20;;
32319;SDS011;19080;51.750;5.888;2023-09-19T15:08:59;6.05;;;1.38;;
32319;SDS011;19080;51.750;5.888;2023-09-19T15:11:25;10.32;;;1.25;;
32319;SDS011;19080;51.750;5.888;2023-09-19T15:13:53;2.83;;;1.30;;
32319;SDS011;19080;51.750;5.888;2023-09-19T15:16:21;4.90;;;1.48;;
32319;SDS011;19080;51.750;5.888;2023-09-19T15:18:48;4.90;;;1.15;;
32319;SDS011;19080;51.750;5.888;2023-09-19T15:21:16;5.00;;;1.20;;
32319;SDS011;19080;51.750;5.888;2023-09-19T15:23:43;3.67;;;1.30;;
32319;SDS011;19080;51.750;5.888;2023-09-19T15:26:13;6.55;;;1.33;;
32319;SDS011;19080;51.750;5.888;2023-09-19T15:28:47;6.57;;;1.10;;
32319;SDS011;19080;51.750;5.888;2023-09-19T15:31:14;8.63;;;1.50;;
32319;SDS011;19080;51.750;5.888;2023-09-19T15:33:41;4.30;;;1.10;;
32319;SDS011;19080;51.750;5.888;2023-09-19T15:38:58;5.60;;;1.35;;
32319;SDS011;19080;51.750;5.888;2023-09-19T15:41:28;3.58;;;1.27;;
32319;SDS011;19080;51.750;5.888;2023-09-19T15:43:55;3.83;;;1.30;;
32319;SDS011;19080;51.750;5.888;2023-09-19T15:46:23;4.38;;;1.30;;
32319;SDS011;19080;51.750;5.888;2023-09-19T15:48:49;7.38;;;1.70;;
32319;SDS011;19080;51.750;5.888;2023-09-19T15:51:16;4.65;;;1.17;;
32319;SDS011;19080;51.750;5.888;2023-09-19T15:53:47;4.32;;;1.20;;